Time;durP1;ratioP1;P1;durP2;ratioP2;P2;SDS_P1;SDS_P2;PMS_P1;PMS_P2;Temp;Humidity;BMP_temperature;BMP_pressure;BME280_temperature;BME280_humidity;BME280_pressure;Samples;Min_cycle;Max_cycle;Signal;HPM_P1;HPM_P2
2022/04/12 18:28:55;;;;;;;64.40;23.30;;;;;;;19.73;30.53;101574.72;2111108;27;20116;-75
2022/04/12 18:30:05;;;;;;;54.88;22.17;;;;;;;19.78;30.62;101575.31;2102311;27;20577;-74
2022/04/12 18:31:10;;;;;;;60.30;23.08;;;;;;;19.85;30.78;101576.69;2106581;27;20069;-75
2022/04/12 18:32:14;;;;;;;64.28;24.80;;;;;;;19.91;31.00;101575.31;2104578;27;20549;-74
2022/04/12 18:33:17;;;;;;;67.57;26.38;;;;;;;19.98;31.04;101581.00;2078850;28;20041;-74
2022/04/12 18:34:24;;;;;;;71.53;27.75;;;;;;;20.04;30.75;101582.38;2078494;28;20484;-73
2022/04/12 18:35:30;;;;;;;64.50;25.33;;;;;;;20.10;30.89;101582.94;2093269;28;20056;-75
2022/04/12 18:36:35;;;;;;;67.18;26.42;;;;;;;20.15;30.88;101585.44;2087021;28;20068;-73
2022/04/12 18:37:38;;;;;;;70.93;27.00;;;;;;;20.20;30.88;101586.00;2086176;28;20040;-75
2022/04/12 18:38:40;;;;;;;68.18;27.17;;;;;;;20.25;30.98;101585.78;2068654;28;20053;-74
2022/04/12 18:39:43;;;;;;;68.03;25.27;;;;;;;20.30;30.76;101584.72;2086312;28;20043;-76
2022/04/12 18:40:53;;;;;;;59.88;24.08;;;;;;;20.35;30.72;101586.44;2094473;28;20092;-75
2022/04/12 18:42:03;;;;;;;57.20;22.48;;;;;;;20.39;30.49;101582.66;2072725;28;20396;-75
2022/04/12 18:43:09;;;;;;;58.10;21.92;;;;;;;20.44;30.40;101581.66;2086943;27;20060;-74
2022/04/12 18:44:13;;;;;;;55.33;23.73;;;;;;;20.46;30.34;101582.91;2077892;28;20037;-73
2022/04/12 18:45:18;;;;;;;51.47;21.17;;;;;;;20.51;30.35;101588.16;2086494;28;20037;-73
2022/04/12 18:46:26;;;;;;;50.40;20.00;;;;;;;20.56;30.18;101584.38;2086015;28;20052;-73
2022/04/12 18:47:31;;;;;;;62.30;19.92;;;;;;;20.59;30.26;101589.16;2086726;28;20033;-73
2022/04/12 18:48:36;;;;;;;53.85;20.25;;;;;;;20.62;30.47;101579.41;2093021;28;20048;-73
2022/04/12 18:49:45;;;;;;;51.15;20.27;;;;;;;20.66;30.49;101583.88;2095779;28;20048;-76
2022/04/12 18:50:49;;;;;;;51.38;19.02;;;;;;;20.69;30.80;101576.88;2085922;28;20127;-74
2022/04/12 18:51:53;;;;;;;50.33;19.25;;;;;;;20.71;31.08;101572.59;2086672;28;20041;-75
2022/04/12 18:52:57;;;;;;;50.65;19.30;;;;;;;20.74;31.35;101576.59;2086738;28;20445;-74
2022/04/12 18:54:00;;;;;;;45.75;18.08;;;;;;;20.77;31.63;101573.16;2087993;28;20044;-74
2022/04/12 18:55:05;;;;;;;47.15;17.98;;;;;;;20.79;31.70;101575.56;2070705;28;20033;-74
2022/04/12 18:56:11;;;;;;;44.30;17.00;;;;;;;20.82;31.48;101569.38;2062525;28;20049;-74
2022/04/12 18:57:20;;;;;;;44.55;17.45;;;;;;;20.83;31.28;101582.75;2056988;28;20047;-74
2022/04/12 18:58:30;;;;;;;45.28;17.90;;;;;;;20.86;31.29;101575.75;2062713;28;20482;-75
2022/04/12 18:59:39;;;;;;;40.65;16.17;;;;;;;20.88;31.10;101571.50;2085613;28;20044;-75
2022/04/12 19:00:53;;;;;;;41.50;16.00;;;;;;;20.90;30.98;101573.91;2083460;28;20045;-73
2022/04/12 19:02:02;;;;;;;40.58;15.40;;;;;;;20.92;30.93;101574.34;2077692;28;20576;-75
2022/04/12 19:03:08;;;;;;;39.92;14.90;;;;;;;20.92;30.76;101575.16;2076225;28;20041;-79
2022/04/12 19:04:14;;;;;;;39.85;15.45;;;;;;;20.94;30.95;101578.34;2077689;28;20519;-75
2022/04/12 19:26:46;;;;;;;9.48;3.15;;;;;;;16.62;27.38;101589.97;2109470;27;20601;-66
2022/04/12 19:27:53;;;;;;;6.90;3.03;;;;;;;14.27;29.49;101597.69;2107008;28;20078;-66
2022/04/12 19:28:55;;;;;;;8.90;4.00;;;;;;;12.09;32.17;101595.59;2098638;28;20047;-67
2022/04/12 19:29:59;;;;;;;9.35;4.70;;;;;;;10.40;34.96;101592.66;2100608;28;20055;-67
2022/04/12 19:31:01;;;;;;;13.27;5.00;;;;;;;8.98;37.81;101595.38;2110674;28;20063;-67
2022/04/12 19:32:05;;;;;;;10.15;5.15;;;;;;;7.76;40.34;101602.00;2105359;28;20058;-68
2022/04/12 19:33:06;;;;;;;10.98;4.70;;;;;;;6.82;42.22;101597.22;2105674;28;20517;-67
2022/04/12 19:34:14;;;;;;;10.30;4.45;;;;;;;5.85;45.46;101609.50;2106875;28;20043;-66
2022/04/12 19:35:17;;;;;;;11.32;5.13;;;;;;;4.97;47.97;101599.28;2107466;28;20099;-66
2022/04/12 19:36:22;;;;;;;11.45;4.93;;;;;;;4.35;49.38;101602.69;2098952;28;20044;-65
2022/04/12 19:37:29;;;;;;;12.48;5.40;;;;;;;3.79;51.01;101603.38;2099913;28;20044;-66
2022/04/12 19:38:31;;;;;;;11.23;5.35;;;;;;;3.48;52.59;101607.22;2102458;28;20051;-64
2022/04/12 19:39:33;;;;;;;14.05;5.40;;;;;;;3.27;53.19;101606.72;2077426;28;20033;-65
2022/04/12 19:40:38;;;;;;;14.23;5.07;;;;;;;3.13;54.45;101608.78;2083978;28;20045;-63
2022/04/12 19:41:42;;;;;;;12.27;4.95;;;;;;;2.99;54.74;101607.34;2093697;28;20302;-66
2022/04/12 19:42:45;;;;;;;13.80;4.75;;;;;;;2.85;55.89;101608.59;2094036;28;20298;-66
2022/04/12 19:43:49;;;;;;;11.93;4.68;;;;;;;2.72;55.92;101610.41;2105604;28;20329;-65
2022/04/12 19:44:51;;;;;;;10.07;4.55;;;;;;;2.58;57.10;101614.28;2107639;28;20289;-65
2022/04/12 19:45:55;;;;;;;9.45;4.30;;;;;;;2.45;57.21;101609.13;2099820;28;20397;-64
2022/04/12 19:47:00;;;;;;;14.57;6.03;;;;;;;2.35;57.82;101616.88;2107284;28;20289;-65
2022/04/12 19:48:07;;;;;;;16.83;5.65;;;;;;;2.28;58.60;101614.28;2096128;28;20400;-65
2022/04/12 19:49:10;;;;;;;13.35;5.18;;;;;;;2.19;58.93;101616.44;2095525;28;20295;-65
2022/04/12 19:50:12;;;;;;;12.30;4.10;;;;;;;2.11;58.95;101616.72;2106907;28;20301;-64
2022/04/12 19:51:17;;;;;;;12.75;3.92;;;;;;;2.09;59.05;101615.31;2109232;28;20320;-64
2022/04/12 19:52:21;;;;;;;8.73;3.90;;;;;;;2.06;59.64;101621.91;2104184;28;20795;-63
2022/04/12 19:53:23;;;;;;;9.57;3.50;;;;;;;2.00;60.68;101612.13;2100725;28;20306;-63
2022/04/12 19:54:29;;;;;;;7.05;3.28;;;;;;;1.95;60.54;101620.78;2100565;28;20290;-64
2022/04/12 19:55:34;;;;;;;7.95;3.28;;;;;;;1.84;61.58;101621.50;2100922;28;20697;-63
2022/04/12 19:56:39;;;;;;;8.60;3.65;;;;;;;1.81;61.83;101617.41;2102842;28;20286;-66
2022/04/12 19:58:01;;;;;;;7.78;3.55;;;;;;;1.74;61.97;101614.00;2089879;28;20294;-68
2022/04/12 19:59:06;;;;;;;11.52;4.03;;;;;;;1.69;62.91;101615.69;2093397;28;20289;-68
2022/04/12 20:00:17;;;;;;;9.90;3.10;;;;;;;1.58;63.73;101625.25;2108078;28;20300;-67
2022/04/12 20:01:23;;;;;;;9.33;3.50;;;;;;;1.44;64.37;101615.72;2108405;28;20294;-65
2022/04/12 20:02:27;;;;;;;10.10;3.30;;;;;;;1.46;63.58;101617.13;2094667;28;20788;-65
2022/04/12 20:03:28;;;;;;;9.53;4.10;;;;;;;1.48;63.56;101625.72;2100398;28;20424;-66
2022/04/12 20:04:31;;;;;;;7.90;3.70;;;;;;;1.52;63.66;101626.13;2097751;28;20294;-67
2022/04/12 20:05:33;;;;;;;7.57;3.20;;;;;;;1.50;63.83;101623.66;2088811;28;21073;-65
2022/04/12 20:06:39;;;;;;;8.47;3.80;;;;;;;1.50;63.99;101622.84;2083425;28;20314;-66
2022/04/12 20:07:41;;;;;;;11.33;3.47;;;;;;;1.52;64.00;101626.94;2104964;28;20293;-65
2022/04/12 20:08:46;;;;;;;12.60;3.20;;;;;;;1.53;63.81;101623.22;2108837;28;20330;-65
2022/04/12 20:09:54;;;;;;;11.90;3.33;;;;;;;1.57;64.80;101626.25;2081290;28;21233;-64
2022/04/12 20:10:58;;;;;;;8.63;3.20;;;;;;;1.57;64.21;101631.59;2100904;28;20294;-65
2022/04/12 20:12:02;;;;;;;9.70;3.60;;;;;;;1.58;64.65;101620.72;2093188;28;20051;-64
2022/04/12 20:13:04;;;;;;;11.30;4.00;;;;;;;1.58;64.50;101630.56;2104114;28;20293;-63
2022/04/12 20:14:07;;;;;;;9.50;3.73;;;;;;;1.54;65.21;101629.34;2103587;28;20289;-66
2022/04/12 20:15:11;;;;;;;7.13;3.97;;;;;;;1.51;64.78;101624.47;2102855;28;20289;-64
2022/04/12 20:16:21;;;;;;;9.55;3.00;;;;;;;1.50;65.90;101628.16;2099506;28;20804;-66
2022/04/12 20:17:30;;;;;;;;;;;;;;;1.47;65.33;101617.94;2088491;28;20056;-66
2022/04/12 20:18:36;;;;;;;11.20;3.30;;;;;;;1.46;65.20;101614.47;2101391;28;19916;-67
2022/04/12 20:19:38;;;;;;;13.00;3.97;;;;;;;1.43;65.33;101617.56;2104030;28;20284;-66
2022/04/12 20:20:43;;;;;;;13.43;4.60;;;;;;;1.45;65.45;101615.47;2101462;28;20636;-65
2022/04/12 20:21:50;;;;;;;9.30;3.97;;;;;;;1.43;66.15;101611.41;2090717;28;21058;-68
2022/04/12 20:22:53;;;;;;;12.33;4.07;;;;;;;1.40;66.42;101612.66;2093018;28;20291;-67
2022/04/12 20:23:57;;;;;;;10.70;4.20;;;;;;;1.34;67.02;101609.00;2107623;28;20297;-67
2022/04/12 20:25:03;;;;;;;9.60;3.70;;;;;;;1.30;67.08;101607.00;2100414;28;20298;-66
2022/04/12 20:26:07;;;;;;;13.27;4.90;;;;;;;1.24;67.72;101598.03;2107730;28;20381;-67
2022/04/12 20:27:12;;;;;;;12.83;5.23;;;;;;;1.21;68.02;101600.31;2099208;28;20392;-66
2022/04/12 20:28:14;;;;;;;15.63;6.40;;;;;;;1.14;68.63;101597.69;2088690;28;20307;-67
2022/04/12 20:29:18;;;;;;;12.60;6.33;;;;;;;1.05;69.60;101593.66;2107846;28;20290;-66
2022/04/12 20:30:23;;;;;;;17.97;5.43;;;;;;;1.06;69.42;101588.09;2083114;28;20326;-67
2022/04/12 20:31:27;;;;;;;10.93;4.70;;;;;;;1.07;69.44;101594.25;2076970;28;20288;-66
2022/04/12 20:32:30;;;;;;;13.60;3.90;;;;;;;1.05;69.28;101593.66;2099591;28;20290;-67
2022/04/12 20:33:34;;;;;;;7.90;3.63;;;;;;;1.04;69.35;101600.00;2089317;28;20306;-66
2022/04/12 20:34:37;;;;;;;10.67;4.13;;;;;;;1.06;69.04;101605.94;2083941;28;20299;-66
2022/04/12 20:35:42;;;;;;;14.17;4.60;;;;;;;1.08;69.37;101603.91;2098925;28;20309;-67
2022/04/12 20:36:44;;;;;;;11.07;4.53;;;;;;;1.05;69.65;101601.66;2081424;28;20373;-66
2022/04/12 20:37:49;;;;;;;13.83;4.73;;;;;;;1.07;68.80;101603.06;2093505;28;20287;-66
2022/04/12 20:38:56;;;;;;;14.03;5.00;;;;;;;1.08;68.91;101606.56;2094805;28;20282;-67
2022/04/12 20:39:59;;;;;;;14.80;4.37;;;;;;;1.10;69.07;101607.13;2068266;28;20667;-65
2022/04/12 20:41:02;;;;;;;10.50;4.20;;;;;;;1.15;68.80;101602.00;2087333;28;20275;-66
2022/04/12 20:42:06;;;;;;;11.67;3.80;;;;;;;1.19;68.73;101600.50;2102429;28;20876;-66
2022/04/12 20:43:08;;;;;;;12.33;4.37;;;;;;;1.21;69.21;101598.47;2102993;28;20294;-66
2022/04/12 20:44:14;;;;;;;14.77;4.10;;;;;;;1.14;70.35;101602.19;2101425;28;20341;-66
2022/04/12 20:45:21;;;;;;;13.73;3.93;;;;;;;1.09;69.80;101601.00;2101169;28;20305;-66
2022/04/12 20:46:29;;;;;;;14.40;4.20;;;;;;;1.05;70.30;101599.00;2102554;28;21037;-65
2022/04/12 20:47:37;;;;;;;10.30;3.97;;;;;;;1.07;70.07;101596.91;2101733;28;20344;-66
2022/04/12 20:48:42;;;;;;;11.40;3.50;;;;;;;1.09;69.94;101600.19;2102560;28;20277;-67
2022/04/12 20:49:48;;;;;;;11.13;3.80;;;;;;;1.10;69.94;101607.13;2094581;28;20302;-67
2022/04/12 20:50:52;;;;;;;11.53;3.60;;;;;;;1.10;69.59;101605.28;2088140;28;20840;-65
2022/04/12 20:51:54;;;;;;;10.97;3.43;;;;;;;1.15;69.53;101599.31;2087264;28;20300;-66
2022/04/12 20:53:00;;;;;;;9.43;4.00;;;;;;;1.19;69.23;101605.03;2093380;28;20288;-65
2022/04/12 20:54:06;;;;;;;11.13;3.73;;;;;;;1.19;69.53;101605.84;2098306;28;20792;-67
2022/04/12 20:55:09;;;;;;;18.83;4.40;;;;;;;1.19;69.36;101600.50;2103122;28;20761;-67
2022/04/12 20:56:15;;;;;;;12.00;4.33;;;;;;;1.18;69.40;101606.88;2102700;28;20345;-66
2022/04/12 20:57:19;;;;;;;10.70;4.97;;;;;;;1.19;70.14;101599.69;2093953;28;20312;-66
2022/04/12 20:58:23;;;;;;;17.93;5.73;;;;;;;1.20;69.42;101602.16;2094932;28;20294;-66
2022/04/12 20:59:25;;;;;;;13.27;5.40;;;;;;;1.22;69.87;101600.09;2094004;28;20946;-65
2022/04/12 21:00:28;;;;;;;13.27;4.93;;;;;;;1.21;70.19;101603.78;2087325;28;20314;-65
2022/04/12 21:01:32;;;;;;;16.23;5.20;;;;;;;1.20;70.28;101604.84;2102869;28;20285;-66
2022/04/12 21:02:36;;;;;;;15.73;5.53;;;;;;;1.20;69.97;101596.00;2103160;28;20626;-66
2022/04/12 21:03:38;;;;;;;24.60;5.57;;;;;;;1.22;69.84;101602.75;2097480;28;20286;-66
2022/04/12 21:04:43;;;;;;;15.80;5.20;;;;;;;1.24;70.31;101602.53;2082268;28;20770;-66
2022/04/12 21:05:45;;;;;;;15.77;5.83;;;;;;;1.23;70.26;101606.22;2086924;28;20283;-67
2022/04/12 21:06:50;;;;;;;16.97;5.87;;;;;;;1.20;70.51;101607.50;2102025;28;20301;-65
2022/04/12 21:07:53;;;;;;;16.03;4.97;;;;;;;1.21;70.13;101606.44;2102116;28;20309;-67
2022/04/12 21:08:58;;;;;;;13.80;5.33;;;;;;;1.24;70.01;101603.34;2086517;28;20715;-64
2022/04/12 21:10:03;;;;;;;13.57;5.13;;;;;;;1.28;70.00;101609.88;2077638;28;20283;-65
2022/04/12 21:11:07;;;;;;;15.07;4.97;;;;;;;1.30;70.14;101607.81;2099406;28;20432;-65
2022/04/12 21:12:11;;;;;;;14.07;5.40;;;;;;;1.30;70.57;101607.00;2103461;28;20887;-65
2022/04/12 21:13:16;;;;;;;20.77;6.97;;;;;;;1.33;69.88;101607.38;2101797;28;21059;-64
2022/04/12 21:14:18;;;;;;;17.63;6.93;;;;;;;1.34;70.35;101608.19;2093877;28;20298;-66
2022/04/12 21:15:21;;;;;;;19.47;7.97;;;;;;;1.35;70.02;101609.81;2102527;28;20316;-65
2022/04/12 21:16:25;;;;;;;24.17;7.60;;;;;;;1.35;70.35;101610.63;2102850;28;20294;-66
2022/04/12 21:17:30;;;;;;;16.93;6.03;;;;;;;1.35;70.48;101609.81;2102807;28;20895;-66
2022/04/12 21:18:36;;;;;;;17.93;6.70;;;;;;;1.33;69.86;101612.72;2103259;28;20290;-65
2022/04/12 21:19:42;;;;;;;17.90;5.07;;;;;;;1.35;70.18;101609.81;2102660;28;20289;-65
2022/04/12 21:20:49;;;;;;;12.80;4.63;;;;;;;1.33;70.47;101615.38;2093871;28;20303;-65
2022/04/12 21:21:56;;;;;;;13.17;4.47;;;;;;;1.33;70.10;101614.56;2063143;28;20329;-65
2022/04/12 21:23:01;;;;;;;13.60;4.77;;;;;;;1.33;70.26;101622.56;2063545;28;20293;-65
2022/04/12 21:24:05;;;;;;;14.87;4.80;;;;;;;1.28;70.64;101617.88;2094162;28;20295;-65
2022/04/12 21:25:11;;;;;;;21.23;4.97;;;;;;;1.28;70.84;101617.06;2093419;28;20290;-66
2022/04/12 21:26:16;;;;;;;12.00;4.87;;;;;;;1.27;70.75;101620.78;2101628;28;20814;-67
2022/04/12 21:27:19;;;;;;;12.40;4.37;;;;;;;1.28;70.33;101619.72;2093690;28;20307;-66
2022/04/12 21:28:21;;;;;;;21.47;4.90;;;;;;;1.29;70.80;101622.16;2101551;28;20289;-66
2022/04/12 21:29:23;;;;;;;9.43;4.60;;;;;;;1.29;70.20;101614.16;2093956;28;20299;-65
2022/04/12 21:30:27;;;;;;;16.07;5.03;;;;;;;1.27;70.95;101620.78;2091777;28;20313;-65
2022/04/12 21:31:30;;;;;;;33.73;5.77;;;;;;;1.24;70.68;101618.53;2102903;28;20353;-66
2022/04/12 21:32:32;;;;;;;17.77;6.17;;;;;;;1.20;71.21;101618.16;2102085;28;20305;-66
2022/04/12 21:33:35;;;;;;;16.43;4.73;;;;;;;1.20;71.24;101618.16;2101890;28;20436;-65
2022/04/12 21:34:38;;;;;;;8.83;4.77;;;;;;;1.21;71.32;101616.31;2102364;28;20309;-65
2022/04/12 21:35:43;;;;;;;18.80;5.50;;;;;;;1.21;71.20;101617.13;2101632;28;20380;-65
2022/04/12 21:36:46;;;;;;;14.13;5.40;;;;;;;1.22;71.07;101617.94;2102401;28;20289;-64
2022/04/12 21:37:49;;;;;;;13.70;5.23;;;;;;;1.23;70.59;101617.72;2094427;28;20305;-66
2022/04/12 21:38:51;;;;;;;16.73;5.20;;;;;;;1.24;70.39;101616.69;2094085;28;20285;-65
2022/04/12 21:39:54;;;;;;;17.90;5.37;;;;;;;1.24;70.78;101615.88;2085018;28;20691;-65
2022/04/12 21:40:58;;;;;;;16.20;5.07;;;;;;;1.27;70.65;101624.25;2085727;28;20334;-64
2022/04/12 21:42:00;;;;;;;13.10;5.90;;;;;;;1.22;70.91;101615.25;2085656;28;20291;-63
2022/04/12 21:43:08;;;;;;;17.37;6.37;;;;;;;1.18;71.09;101614.88;2088642;28;20738;-64
2022/04/12 21:44:14;;;;;;;14.70;6.00;;;;;;;1.16;70.78;101614.28;2086783;28;20337;-64
2022/04/12 21:45:22;;;;;;;18.90;5.70;;;;;;;1.18;70.60;101619.41;2072053;28;20297;-65
2022/04/12 21:46:29;;;;;;;21.17;5.70;;;;;;;1.14;70.60;101619.03;2080272;28;20663;-65
2022/04/12 21:47:33;;;;;;;17.83;5.87;;;;;;;1.11;71.22;101616.78;2087428;28;20307;-63
2022/04/12 21:48:38;;;;;;;13.63;5.30;;;;;;;1.09;71.31;101621.50;2084436;28;21131;-65
2022/04/12 21:49:42;;;;;;;20.30;6.30;;;;;;;1.08;70.98;101622.56;2091628;28;20345;-63
2022/04/12 21:50:47;;;;;;;16.43;6.30;;;;;;;1.06;71.64;101621.94;2103288;28;20293;-64
2022/04/12 21:51:50;;;;;;;18.70;5.70;;;;;;;1.04;71.14;101618.66;2103003;28;20301;-66
2022/04/12 21:52:58;;;;;;;15.13;6.00;;;;;;;1.02;71.43;101620.75;2087077;28;20299;-63
2022/04/12 21:54:01;;;;;;;18.17;6.10;;;;;;;1.03;71.28;101622.38;2088532;28;20747;-64
2022/04/12 21:55:06;;;;;;;16.50;6.00;;;;;;;1.00;71.67;101622.81;2102992;28;20298;-64
2022/04/12 21:56:11;;;;;;;15.90;6.17;;;;;;;0.99;71.42;101627.31;2102940;28;20764;-65
2022/04/12 21:57:14;;;;;;;14.50;6.17;;;;;;;0.97;71.59;101628.56;2101362;28;20653;-65
2022/04/12 21:58:17;;;;;;;18.73;6.03;;;;;;;0.95;71.68;101619.94;2102794;28;20748;-62
2022/04/12 21:59:24;;;;;;;15.73;6.60;;;;;;;0.94;71.73;101629.00;2101733;28;20288;-65
2022/04/12 22:00:40;;;;;;;18.17;7.23;;;;;;;0.94;71.91;101626.31;2102747;28;20309;-65
2022/04/12 22:01:42;;;;;;;18.63;7.43;;;;;;;0.94;71.56;101629.81;2102307;28;20278;-65
2022/04/12 22:02:46;;;;;;;18.43;7.60;;;;;;;0.96;71.71;101627.75;2103213;28;20298;-65
2022/04/12 22:03:49;;;;;;;22.63;6.77;;;;;;;0.97;71.48;101632.03;2103379;28;20301;-65
2022/04/12 22:04:51;;;;;;;16.30;7.10;;;;;;;0.97;71.26;101634.69;2083909;28;20338;-64
2022/04/12 22:05:57;;;;;;;26.87;8.47;;;;;;;0.96;71.63;101633.06;2086947;28;20805;-64
2022/04/12 22:07:00;;;;;;;18.93;8.00;;;;;;;0.92;71.62;101628.38;2095293;28;20287;-64
2022/04/12 22:08:06;;;;;;;20.97;7.83;;;;;;;0.90;71.88;101630.47;2096952;28;20295;-64
2022/04/12 22:09:11;;;;;;;17.40;7.87;;;;;;;0.84;72.08;101632.94;2095727;28;20287;-65
2022/04/12 22:10:17;;;;;;;22.90;8.27;;;;;;;0.80;72.22;101629.06;2094680;28;20291;-65
2022/04/12 22:11:20;;;;;;;30.93;8.50;;;;;;;0.81;72.32;101625.38;2095150;28;20298;-64
2022/04/12 22:12:23;;;;;;;20.40;7.37;;;;;;;0.78;72.46;101620.47;2095208;28;20361;-64
2022/04/12 22:13:26;;;;;;;20.83;7.27;;;;;;;0.76;72.76;101614.56;2094861;28;20357;-65
2022/04/12 22:14:31;;;;;;;21.57;7.60;;;;;;;0.75;72.50;101625.41;2095525;28;20291;-65
2022/04/12 22:15:35;;;;;;;21.37;7.23;;;;;;;0.77;72.94;101618.03;2103038;28;20290;-64
2022/04/12 22:16:37;;;;;;;23.67;7.70;;;;;;;0.72;73.06;101621.31;2095277;28;20906;-64
2022/04/12 22:17:42;;;;;;;27.40;7.70;;;;;;;0.68;73.14;101625.44;2095586;28;20266;-63
2022/04/12 22:18:45;;;;;;;24.30;8.57;;;;;;;0.69;73.06;101616.41;2087791;28;20314;-65
2022/04/12 22:19:50;;;;;;;25.87;8.00;;;;;;;0.72;73.05;101620.50;2094916;28;20287;-65
2022/04/12 22:20:55;;;;;;;19.07;6.87;;;;;;;0.69;73.18;101616.41;2095661;28;20289;-65
2022/04/12 22:22:03;;;;;;;27.05;8.00;;;;;;;0.73;73.18;101622.97;2095549;28;20294;-64
2022/04/12 22:23:06;;;;;;;20.77;7.60;;;;;;;0.76;73.43;101619.03;2094847;28;20045;-66
2022/04/12 22:24:09;;;;;;;24.07;7.63;;;;;;;0.78;73.05;101620.47;2071246;28;20288;-66
2022/04/12 22:25:13;;;;;;;23.03;8.03;;;;;;;0.77;73.01;101621.50;2071580;28;20419;-65
2022/04/12 22:26:16;;;;;;;21.97;7.87;;;;;;;0.77;73.33;101618.84;2087355;28;20295;-65
2022/04/12 22:27:18;;;;;;;17.30;7.87;;;;;;;0.76;72.64;101622.53;2086605;28;20283;-64
2022/04/12 22:28:22;;;;;;;27.47;8.97;;;;;;;0.72;73.04;101615.19;2095737;28;20279;-66
2022/04/12 22:29:27;;;;;;;21.93;8.90;;;;;;;0.71;72.64;101614.38;2095536;28;20287;-65
2022/04/12 22:30:33;;;;;;;26.17;9.60;;;;;;;0.72;72.98;101621.31;2095195;28;20765;-66
2022/04/12 22:31:36;;;;;;;25.20;9.70;;;;;;;0.73;72.57;101620.31;2095570;28;20275;-65
2022/04/12 22:32:46;;;;;;;23.90;9.70;;;;;;;0.75;72.68;101614.75;2088712;28;20280;-63
2022/04/12 22:33:49;;;;;;;25.03;9.53;;;;;;;0.76;72.83;101616.38;2095653;28;20837;-63
2022/04/12 22:34:54;;;;;;;25.73;9.77;;;;;;;0.73;72.16;101620.31;2103928;28;20290;-64
2022/04/12 22:35:59;;;;;;;24.23;8.97;;;;;;;0.75;72.53;101615.56;2078424;28;20296;-64
2022/04/12 22:37:02;;;;;;;24.57;9.43;;;;;;;0.74;72.07;101615.78;2072634;28;20289;-65
2022/04/12 22:38:05;;;;;;;22.43;8.60;;;;;;;0.73;72.47;101627.47;2094975;28;20286;-64
2022/04/12 22:39:08;;;;;;;20.40;7.70;;;;;;;0.73;71.97;101622.97;2096076;28;20299;-65
2022/04/12 22:40:12;;;;;;;21.93;8.50;;;;;;;0.66;72.18;101627.50;2095567;28;20298;-65
2022/04/12 22:41:15;;;;;;;24.17;8.20;;;;;;;0.63;72.23;101628.75;2094761;28;20770;-64
2022/04/12 22:42:21;;;;;;;22.90;8.27;;;;;;;0.64;73.01;101624.25;2087542;28;21035;-64
2022/04/12 22:43:23;;;;;;;20.40;7.83;;;;;;;0.64;72.39;101629.56;2095504;28;20294;-64
2022/04/12 22:44:26;;;;;;;26.53;8.53;;;;;;;0.66;72.69;101627.50;2096189;28;20291;-64
2022/04/12 22:45:28;;;;;;;25.07;7.33;;;;;;;0.64;72.88;101632.25;2083314;28;20284;-63
2022/04/12 22:46:31;;;;;;;24.77;9.30;;;;;;;0.65;72.47;101631.19;2078622;28;20288;-64
2022/04/12 22:47:42;;;;;;;21.00;7.90;;;;;;;0.64;72.27;101634.91;2070398;28;20312;-63
2022/04/12 22:48:47;;;;;;;26.97;7.73;;;;;;;0.67;72.29;101639.00;2076187;28;20292;-63
2022/04/12 22:49:49;;;;;;;22.30;8.00;;;;;;;0.65;72.30;101628.53;2095872;28;20293;-65
2022/04/12 22:50:52;;;;;;;32.77;7.57;;;;;;;0.65;72.27;101631.19;2096278;28;20283;-64
2022/04/12 22:51:58;;;;;;;28.33;7.93;;;;;;;0.64;72.36;101626.91;2103393;28;20289;-64
2022/04/12 22:53:01;;;;;;;36.57;7.60;;;;;;;0.60;72.59;101629.19;2095421;28;20295;-63
2022/04/12 22:54:05;;;;;;;36.33;8.13;;;;;;;0.57;73.09;101636.75;2095669;28;20302;-64
2022/04/12 22:55:10;;;;;;;26.70;7.60;;;;;;;0.56;73.17;101633.28;2095073;28;20298;-64
2022/04/12 22:56:14;;;;;;;20.17;7.70;;;;;;;0.56;73.01;101635.13;2080690;28;20288;-63
2022/04/12 22:57:17;;;;;;;26.93;7.57;;;;;;;0.53;72.93;101627.56;2080403;28;20288;-64
2022/04/12 22:58:21;;;;;;;35.03;7.93;;;;;;;0.55;73.01;101622.84;2095032;28;20657;-63
2022/04/12 22:59:22;;;;;;;28.13;8.27;;;;;;;0.49;73.28;101621.03;2070885;28;20304;-66
2022/04/12 23:00:27;;;;;;;35.27;6.60;;;;;;;0.51;73.39;101619.81;2071008;28;20281;-65
2022/04/12 23:01:35;;;;;;;29.40;7.50;;;;;;;0.54;73.20;101618.53;2095245;28;20293;-65
2022/04/12 23:02:38;;;;;;;35.93;7.67;;;;;;;0.59;73.17;101610.75;2094862;28;20321;-64
2022/04/12 23:03:52;;;;;;;49.47;8.90;;;;;;;0.59;72.95;101606.22;2095156;28;20283;-63
2022/04/12 23:04:57;;;;;;;46.70;7.73;;;;;;;0.59;72.65;101605.41;2095083;28;20295;-64
2022/04/12 23:06:03;;;;;;;43.43;8.60;;;;;;;0.58;73.04;101606.44;2095997;28;20409;-64
2022/04/12 23:07:06;;;;;;;30.20;7.70;;;;;;;0.53;73.21;101603.59;2095308;28;20290;-65
2022/04/12 23:08:09;;;;;;;47.03;8.67;;;;;;;0.47;73.19;101601.78;2078882;28;20965;-65
2022/04/12 23:09:18;;;;;;;37.83;7.97;;;;;;;0.45;72.98;101601.19;2087782;28;20295;-64
2022/04/12 23:10:21;;;;;;;29.33;8.37;;;;;;;0.47;72.99;101604.44;2096072;28;20282;-65
2022/04/12 23:11:26;;;;;;;35.87;7.17;;;;;;;0.47;73.10;101601.78;2095560;28;20290;-65
2022/04/12 23:12:34;;;;;;;21.90;5.67;;;;;;;0.44;73.56;101599.53;2094929;28;20283;-64
2022/04/12 23:13:38;;;;;;;31.53;6.57;;;;;;;0.49;73.41;101605.06;2089308;28;20279;-64
2022/04/12 23:14:46;;;;;;;26.33;6.22;;;;;;;0.50;73.40;101607.50;2079138;28;21097;-64
2022/04/12 23:15:54;;;;;;;23.07;6.13;;;;;;;0.52;73.30;101610.78;2074714;28;20054;-64
2022/04/12 23:16:57;;;;;;;22.03;6.27;;;;;;;0.53;73.59;101611.59;2078975;28;20303;-64
2022/04/12 23:18:02;;;;;;;34.67;6.97;;;;;;;0.54;73.30;101613.22;2094915;28;20302;-64
2022/04/12 23:19:05;;;;;;;31.33;6.13;;;;;;;0.55;73.33;101609.53;2087627;28;20852;-64
2022/04/12 23:20:11;;;;;;;26.60;6.10;;;;;;;0.54;73.21;101614.06;2095257;28;20686;-63
2022/04/12 23:21:13;;;;;;;28.30;7.23;;;;;;;0.54;73.36;101613.22;2079354;28;20306;-64
2022/04/12 23:22:18;;;;;;;35.33;6.67;;;;;;;0.52;72.94;101607.28;2086235;28;20298;-64
2022/04/12 23:23:21;;;;;;;32.03;7.50;;;;;;;0.52;73.10;101604.63;2094791;28;20301;-63
2022/04/12 23:24:24;;;;;;;27.90;7.10;;;;;;;0.50;72.98;101612.81;2094765;28;20642;-65
2022/04/12 23:25:27;;;;;;;29.30;7.83;;;;;;;0.50;73.04;101612.00;2094972;28;20300;-65
2022/04/12 23:26:30;;;;;;;38.23;8.20;;;;;;;0.51;72.62;101613.63;2087453;28;20303;-63
2022/04/12 23:27:34;;;;;;;25.80;7.17;;;;;;;0.51;72.87;101606.50;2087511;28;20302;-66
2022/04/12 23:28:40;;;;;;;25.50;7.50;;;;;;;0.50;72.64;101612.00;2088135;28;20311;-64
2022/04/12 23:29:43;;;;;;;32.03;6.80;;;;;;;0.50;72.54;101610.16;2087546;28;20283;-65
2022/04/12 23:30:46;;;;;;;38.53;8.43;;;;;;;0.45;72.62;101607.34;2088498;28;20783;-65
2022/04/12 23:31:51;;;;;;;27.47;7.33;;;;;;;0.44;72.43;101608.34;2095528;28;20289;-65
2022/04/12 23:32:56;;;;;;;32.10;7.37;;;;;;;0.44;72.81;101612.84;2087988;28;20290;-65
2022/04/12 23:33:59;;;;;;;32.70;8.83;;;;;;;0.41;72.75;101614.94;2085647;28;20287;-65
2022/04/12 23:35:03;;;;;;;23.70;8.30;;;;;;;0.43;72.64;101612.03;2087618;28;20670;-64
2022/04/12 23:36:04;;;;;;;28.30;8.23;;;;;;;0.42;72.35;101623.72;2080780;28;20300;-64
2022/04/12 23:37:08;;;;;;;25.63;8.30;;;;;;;0.41;72.88;101625.59;2096062;28;20662;-64
2022/04/12 23:38:11;;;;;;;38.53;8.33;;;;;;;0.44;72.54;101626.16;2096330;28;20283;-65
2022/04/12 23:39:18;;;;;;;24.20;8.07;;;;;;;0.41;72.31;101630.91;2089052;28;20291;-64
2022/04/12 23:40:24;;;;;;;28.50;7.90;;;;;;;0.43;72.38;101637.84;2096554;28;20282;-64
2022/04/12 23:41:28;;;;;;;20.07;7.63;;;;;;;0.40;72.54;101634.56;2096026;28;20366;-63
2022/04/12 23:42:30;;;;;;;19.70;7.53;;;;;;;0.32;72.89;101637.50;2087748;28;20284;-62
2022/04/12 23:43:37;;;;;;;31.07;7.30;;;;;;;0.31;73.31;101635.03;2082016;28;20284;-60
2022/04/12 23:44:45;;;;;;;46.13;8.10;;;;;;;0.32;73.54;101629.50;2088611;28;20298;-60
2022/04/12 23:45:53;;;;;;;31.20;10.23;;;;;;;0.32;73.36;101626.84;2080459;28;20300;-60
2022/04/12 23:46:55;;;;;;;33.03;7.37;;;;;;;0.29;73.28;101627.25;2080563;28;20303;-60
2022/04/12 23:47:56;;;;;;;24.73;7.10;;;;;;;0.28;73.09;101619.47;2087540;28;20303;-60
2022/04/12 23:49:01;;;;;;;34.40;6.50;;;;;;;0.31;73.39;101625.19;2087970;28;20373;-60
2022/04/12 23:50:08;;;;;;;32.63;5.57;;;;;;;0.27;73.79;101631.97;2095666;28;20306;-59